createdAt,value
2023-03-30T00:01:19.155Z,99952.78
2023-03-30T00:03:49.999Z,99948.19
2023-03-30T00:06:23.176Z,99954.03
2023-03-30T00:08:59.065Z,99955.73
2023-03-30T00:11:34.341Z,99951.48
2023-03-30T00:14:02.619Z,99946.15
2023-03-30T00:16:30.696Z,99945.64
2023-03-30T00:18:58.768Z,99947.51
2023-03-30T00:21:28.242Z,99944.45
2023-03-30T00:23:58.937Z,99947.91
2023-03-30T00:26:27.149Z,99948.80
2023-03-30T00:28:55.177Z,99949.99
2023-03-30T00:31:23.688Z,99951.37
2023-03-30T00:33:52.343Z,99950.32
2023-03-30T00:36:22.437Z,99946.86
2023-03-30T00:38:53.212Z,99943.95
2023-03-30T00:41:21.830Z,99943.26
2023-03-30T00:44:06.597Z,99946.38
2023-03-30T00:46:35.397Z,99950.84
2023-03-30T00:49:06.288Z,99949.11
2023-03-30T00:51:38.061Z,99951.67
2023-03-30T00:54:08.630Z,99953.20
2023-03-30T00:56:37.743Z,99954.28
2023-03-30T00:59:05.779Z,99957.92
2023-03-30T01:01:39.360Z,99954.64
2023-03-30T01:04:10.064Z,99959.12
2023-03-30T01:06:40.589Z,99963.40
2023-03-30T01:09:09.057Z,99965.65
2023-03-30T01:11:40.983Z,99965.86
2023-03-30T01:14:10.448Z,99966.54
2023-03-30T01:17:13.501Z,99966.16
2023-03-30T01:20:12.775Z,99968.92
2023-03-30T01:23:28.547Z,99971.31
2023-03-30T01:26:21.724Z,99975.45
2023-03-30T01:28:57.648Z,99978.90
2023-03-30T01:31:45.786Z,99982.15
2023-03-30T01:34:19.004Z,99984.05
2023-03-30T01:37:02.618Z,99984.91
2023-03-30T01:39:41.735Z,99986.13
2023-03-30T01:42:22.149Z,99989.21
2023-03-30T01:45:01.893Z,99990.59
2023-03-30T01:47:36.627Z,99991.46
2023-03-30T01:50:17.284Z,99997.14
2023-03-30T01:52:56.165Z,99990.79
2023-03-30T01:55:44.012Z,99996.64
2023-03-30T01:58:19.547Z,100003.52
2023-03-30T02:00:50.214Z,100008.50
2023-03-30T02:03:22.868Z,100009.02
2023-03-30T02:05:52.282Z,100010.56
2023-03-30T02:08:26.030Z,100011.77
2023-03-30T02:10:54.860Z,100015.89
2023-03-30T02:13:22.826Z,100020.02
2023-03-30T02:16:32.023Z,100020.19
2023-03-30T02:19:01.885Z,100014.69
2023-03-30T02:21:33.249Z,100011.59
2023-03-30T02:24:01.309Z,100014.66
2023-03-30T02:26:30.432Z,100018.27
2023-03-30T02:28:59.769Z,100020.01
2023-03-30T02:31:29.086Z,100019.98
2023-03-30T02:33:59.110Z,100023.95
2023-03-30T02:36:50.932Z,100021.89
2023-03-30T02:39:37.258Z,100028.61
2023-03-30T02:42:33.465Z,100032.05
2023-03-30T02:45:20.172Z,100035.84
2023-03-30T02:48:03.719Z,100035.48
2023-03-30T02:50:45.631Z,100035.67
2023-03-30T02:53:42.220Z,100039.45
2023-03-30T02:56:19.307Z,100041.67
2023-03-30T02:59:04.100Z,100043.91
2023-03-30T03:01:48.425Z,100044.25
2023-03-30T03:04:18.886Z,100042.17
2023-03-30T03:07:11.436Z,100045.48
2023-03-30T03:09:39.373Z,100045.11
2023-03-30T03:12:08.023Z,100044.58
2023-03-30T03:14:58.181Z,100040.98
2023-03-30T03:17:34.739Z,100051.13
2023-03-30T03:20:10.458Z,100054.23
2023-03-30T03:22:38.857Z,100058.15
2023-03-30T03:25:08.668Z,100060.22
2023-03-30T03:27:49.668Z,100064.02
2023-03-30T03:30:22.333Z,100061.05
2023-03-30T03:33:00.857Z,100067.05
2023-03-30T03:35:30.095Z,100072.17
2023-03-30T03:37:58.929Z,100070.98
2023-03-30T03:40:28.023Z,100074.61
2023-03-30T03:42:56.191Z,100072.20
2023-03-30T03:45:26.647Z,100066.55
2023-03-30T03:47:57.590Z,100070.17
2023-03-30T03:50:36.125Z,100068.47
2023-03-30T03:53:04.949Z,100070.36
2023-03-30T03:55:34.916Z,100068.44
2023-03-30T03:58:04.272Z,100073.70
2023-03-30T04:00:32.759Z,100074.33
2023-03-30T04:03:09.255Z,100076.85
2023-03-30T04:05:42.623Z,100080.66
2023-03-30T04:08:12.001Z,100077.94
2023-03-30T04:10:41.595Z,100080.33
2023-03-30T04:13:28.664Z,100079.84
2023-03-30T04:16:20.048Z,100082.44
2023-03-30T04:19:16.028Z,100078.79
2023-03-30T04:22:00.905Z,100082.02
2023-03-30T04:24:59.370Z,100084.98
2023-03-30T04:27:53.738Z,100088.41
2023-03-30T04:30:41.063Z,100085.82
2023-03-30T04:33:51.801Z,100086.48
2023-03-30T04:36:58.891Z,100087.05
2023-03-30T04:39:35.746Z,100086.73
2023-03-30T04:42:22.648Z,100085.66
2023-03-30T04:45:14.706Z,100084.72
2023-03-30T04:48:02.901Z,100091.31
2023-03-30T04:50:47.537Z,100088.06
2023-03-30T04:53:34.124Z,100092.17
2023-03-30T04:56:14.091Z,100095.45
2023-03-30T04:58:51.346Z,100089.37
2023-03-30T05:01:43.297Z,100095.58
2023-03-30T05:04:30.929Z,100099.67
2023-03-30T05:07:18.781Z,100094.43
2023-03-30T05:09:59.159Z,100099.24
2023-03-30T05:12:45.884Z,100099.13
2023-03-30T05:15:33.855Z,100096.94
2023-03-30T05:18:32.988Z,100098.30
2023-03-30T05:21:31.564Z,100104.87
2023-03-30T05:24:28.989Z,100104.52
2023-03-30T05:27:20.114Z,100102.98
2023-03-30T05:30:02.164Z,100102.29
2023-03-30T05:32:52.458Z,100105.17
2023-03-30T05:35:47.321Z,100103.30
2023-03-30T05:38:36.156Z,100106.40
2023-03-30T05:41:14.999Z,100104.52
2023-03-30T05:44:02.040Z,100113.32
2023-03-30T05:46:36.443Z,100112.80
2023-03-30T05:49:22.995Z,100111.42
2023-03-30T05:52:06.925Z,100112.98
2023-03-30T05:55:02.021Z,100114.17
2023-03-30T05:57:52.850Z,100116.41
2023-03-30T06:00:36.889Z,100117.29
2023-03-30T06:03:13.831Z,100119.89
2023-03-30T06:05:44.239Z,100116.45
2023-03-30T06:08:13.703Z,100117.32
2023-03-30T06:10:52.240Z,100107.70
2023-03-30T06:13:20.087Z,100111.84
2023-03-30T06:16:02.947Z,100113.04
2023-03-30T06:18:31.650Z,100113.92
2023-03-30T06:21:08.627Z,100112.55
2023-03-30T06:24:06.284Z,100111.86
2023-03-30T06:26:36.444Z,100114.79
2023-03-30T06:29:05.042Z,100116.17
2023-03-30T06:31:35.316Z,100115.65
2023-03-30T06:34:22.906Z,100117.55
2023-03-30T06:36:52.283Z,100117.54
2023-03-30T06:39:22.031Z,100114.61
2023-03-30T06:41:51.150Z,100115.48
2023-03-30T06:44:38.042Z,100112.55
2023-03-30T06:47:12.085Z,100113.92
2023-03-30T06:49:40.983Z,100116.33
2023-03-30T06:52:29.550Z,100117.02
2023-03-30T06:54:57.645Z,100115.63
2023-03-30T06:57:25.934Z,100115.47
2023-03-30T06:59:54.151Z,100116.67
2023-03-30T07:02:22.504Z,100105.81
2023-03-30T07:05:18.049Z,100103.56
2023-03-30T07:08:07.470Z,100100.29
2023-03-30T07:10:36.226Z,100099.95
2023-03-30T07:13:06.238Z,100097.52
2023-03-30T07:15:34.522Z,100100.09
2023-03-30T07:18:03.395Z,100102.14
2023-03-30T07:20:32.605Z,100102.14
2023-03-30T07:23:15.018Z,100096.95
2023-03-30T07:25:44.316Z,100097.30
2023-03-30T07:28:23.868Z,100096.25
2023-03-30T07:30:53.083Z,100094.69
2023-03-30T07:33:22.989Z,100089.00
2023-03-30T07:35:51.586Z,100084.83
2023-03-30T07:38:23.117Z,100081.35
2023-03-30T07:40:54.064Z,100079.30
2023-03-30T07:43:22.916Z,100078.41
2023-03-30T07:45:58.008Z,100075.28
2023-03-30T07:48:31.795Z,100074.04
2023-03-30T07:51:09.236Z,100067.28
2023-03-30T07:53:40.055Z,100060.05
2023-03-30T07:56:15.384Z,100059.00
2023-03-30T07:58:47.161Z,100053.17
2023-03-30T08:01:23.715Z,100051.43
2023-03-30T08:04:07.576Z,100047.77
2023-03-30T08:06:37.948Z,100049.43
2023-03-30T08:09:06.134Z,100050.77
2023-03-30T08:11:36.196Z,100050.77
2023-03-30T08:14:04.268Z,100051.97
2023-03-30T08:16:32.381Z,100055.58
2023-03-30T08:19:00.449Z,100051.61
2023-03-30T08:21:28.974Z,100050.71
2023-03-30T08:23:59.046Z,100050.30
2023-03-30T08:26:28.385Z,100055.98
2023-03-30T08:28:57.004Z,100046.96
2023-03-30T08:31:24.984Z,100047.10
2023-03-30T08:33:56.160Z,100046.86
2023-03-30T08:36:24.661Z,100048.48
2023-03-30T08:38:59.147Z,100048.60
2023-03-30T08:41:30.239Z,100054.73
2023-03-30T08:44:09.500Z,100051.64
2023-03-30T08:46:38.391Z,100049.85
2023-03-30T08:49:08.240Z,100048.02
2023-03-30T08:51:37.034Z,100043.11
2023-03-30T08:54:06.470Z,100037.45
2023-03-30T08:56:35.995Z,100038.02
2023-03-30T08:59:20.669Z,100034.27
2023-03-30T09:01:56.947Z,100034.33
2023-03-30T09:04:40.894Z,100027.38
2023-03-30T09:07:20.656Z,100021.82
2023-03-30T09:09:49.557Z,100022.93
2023-03-30T09:12:22.509Z,100022.89
2023-03-30T09:14:56.148Z,100023.23
2023-03-30T09:17:37.288Z,100014.03
2023-03-30T09:20:16.206Z,100007.05
2023-03-30T09:22:44.401Z,100005.53
2023-03-30T09:25:35.007Z,99999.88
2023-03-30T09:28:08.811Z,99999.34
2023-03-30T09:30:42.128Z,100001.45
2023-03-30T09:33:18.560Z,99997.34
2023-03-30T09:36:10.332Z,99998.47
2023-03-30T09:38:43.308Z,99997.30
2023-03-30T09:41:17.865Z,99993.27
2023-03-30T09:43:46.713Z,99988.54
2023-03-30T09:46:15.962Z,99987.90
2023-03-30T09:48:45.810Z,99987.02
2023-03-30T09:51:22.652Z,99990.39
2023-03-30T09:54:01.868Z,99984.67
2023-03-30T09:56:35.322Z,99982.40
2023-03-30T09:59:28.759Z,99979.57
2023-03-30T10:02:17.712Z,99975.23
2023-03-30T10:04:52.754Z,99975.39
2023-03-30T10:07:43.154Z,99965.80
2023-03-30T10:10:29.213Z,99972.59
2023-03-30T10:13:06.586Z,99976.44
2023-03-30T10:15:37.766Z,99967.52
2023-03-30T10:18:17.927Z,99969.64
2023-03-30T10:20:51.695Z,99966.59
2023-03-30T10:23:22.156Z,99963.37
2023-03-30T10:25:52.274Z,99964.70
2023-03-30T10:28:27.285Z,99963.58
2023-03-30T10:31:07.458Z,99958.45
2023-03-30T10:33:39.920Z,99957.53
2023-03-30T10:36:08.257Z,99955.21
2023-03-30T10:38:40.442Z,99950.92
2023-03-30T10:41:14.312Z,99947.84
2023-03-30T10:43:42.257Z,99945.58
2023-03-30T10:46:20.060Z,99937.84
2023-03-30T10:48:58.453Z,99934.38
2023-03-30T10:51:53.981Z,99936.36
2023-03-30T10:54:47.145Z,99934.83
2023-03-30T10:57:17.185Z,99931.10
2023-03-30T10:59:59.977Z,99927.02
2023-03-30T11:02:39.457Z,99919.52
2023-03-30T11:05:09.624Z,99916.13
2023-03-30T11:07:41.720Z,99913.71
2023-03-30T11:10:29.492Z,99909.21
2023-03-30T11:13:19.342Z,99906.09
2023-03-30T11:15:59.550Z,99908.55
2023-03-30T11:18:41.507Z,99908.13
2023-03-30T11:21:41.641Z,99900.00
2023-03-30T11:24:20.034Z,99902.18
2023-03-30T11:26:53.772Z,99900.00
2023-03-30T11:29:32.574Z,99900.15
2023-03-30T11:32:26.081Z,99897.86
2023-03-30T11:35:09.496Z,99892.08
2023-03-30T11:37:50.137Z,99885.55
2023-03-30T11:40:23.151Z,99884.77
2023-03-30T11:42:52.459Z,99888.05
2023-03-30T11:45:39.274Z,99877.52
2023-03-30T11:48:30.768Z,99872.52
2023-03-30T11:51:09.471Z,99874.88
2023-03-30T11:53:46.784Z,99877.58
2023-03-30T11:56:19.896Z,99870.58
2023-03-30T11:59:09.191Z,99870.04
2023-03-30T12:01:55.925Z,99870.71
2023-03-30T12:04:29.058Z,99866.07
2023-03-30T12:07:02.760Z,99870.75
2023-03-30T12:10:09.516Z,99864.50
2023-03-30T12:12:56.172Z,99863.70
2023-03-30T12:15:31.409Z,99862.11
2023-03-30T12:18:38.073Z,99858.88
2023-03-30T12:21:33.196Z,99858.02
2023-03-30T12:24:20.115Z,99862.01
2023-03-30T12:27:02.151Z,99862.04
2023-03-30T12:30:02.313Z,99859.83
2023-03-30T12:32:32.848Z,99856.75
2023-03-30T12:35:00.724Z,99848.34
2023-03-30T12:37:33.543Z,99847.78
2023-03-30T12:40:09.442Z,99845.71
2023-03-30T12:42:46.536Z,99847.54
2023-03-30T12:45:33.888Z,99840.75
2023-03-30T12:48:34.677Z,99841.72
2023-03-30T12:51:17.063Z,99835.59
2023-03-30T12:53:52.693Z,99840.48
2023-03-30T12:56:29.020Z,99837.02
2023-03-30T12:59:36.319Z,99833.20
2023-03-30T13:02:43.823Z,99826.23
2023-03-30T13:05:21.415Z,99823.30
2023-03-30T13:07:50.795Z,99822.55
2023-03-30T13:10:31.694Z,99816.98
2023-03-30T13:13:01.533Z,99813.67
2023-03-30T13:15:29.448Z,99814.62
2023-03-30T13:18:05.237Z,99814.71
2023-03-30T13:20:47.094Z,99813.52
2023-03-30T13:23:19.443Z,99817.61
2023-03-30T13:26:04.342Z,99817.14
2023-03-30T13:28:45.964Z,99813.61
2023-03-30T13:31:26.227Z,99808.27
2023-03-30T13:34:33.471Z,99803.88
2023-03-30T13:37:14.779Z,99804.23
2023-03-30T13:40:08.850Z,99802.05
2023-03-30T13:42:51.217Z,99794.91
2023-03-30T13:45:50.211Z,99790.35
2023-03-30T13:48:37.078Z,99794.62
2023-03-30T13:51:05.244Z,99790.00
2023-03-30T13:53:41.862Z,99788.13
2023-03-30T13:56:10.088Z,99784.58
2023-03-30T13:58:38.829Z,99780.17
2023-03-30T14:01:09.209Z,99783.95
2023-03-30T14:03:43.639Z,99782.17
2023-03-30T14:06:14.512Z,99779.06
2023-03-30T14:08:45.165Z,99772.44
2023-03-30T14:11:22.519Z,99776.38
2023-03-30T14:13:52.417Z,99772.30
2023-03-30T14:16:25.033Z,99776.42
2023-03-30T14:19:13.412Z,99779.95
2023-03-30T14:21:45.450Z,99773.72
2023-03-30T14:24:16.968Z,99773.76
2023-03-30T14:26:48.269Z,99770.36
2023-03-30T14:29:30.342Z,99765.65
2023-03-30T14:32:09.405Z,99759.98
2023-03-30T14:34:39.431Z,99758.45
2023-03-30T14:37:08.061Z,99757.08
2023-03-30T14:39:39.870Z,99749.91
2023-03-30T14:42:16.027Z,99749.27
2023-03-30T14:44:48.595Z,99745.79
2023-03-30T14:47:19.158Z,99748.40
2023-03-30T14:49:47.639Z,99746.47
2023-03-30T14:52:19.829Z,99742.13
2023-03-30T14:55:02.511Z,99742.15
2023-03-30T14:57:38.037Z,99735.91
2023-03-30T15:00:18.670Z,99738.23
2023-03-30T15:02:54.400Z,99737.23
2023-03-30T15:05:23.892Z,99736.87
2023-03-30T15:07:52.246Z,99732.47
2023-03-30T15:10:25.361Z,99729.57
2023-03-30T15:12:55.356Z,99731.28
2023-03-30T15:15:26.454Z,99728.61
2023-03-30T15:18:02.351Z,99727.98
2023-03-30T15:20:30.878Z,99727.73
2023-03-30T15:22:59.074Z,99727.77
2023-03-30T15:25:32.777Z,99721.98
2023-03-30T15:28:13.660Z,99720.86
2023-03-30T15:30:43.899Z,99717.05
2023-03-30T15:33:34.911Z,99714.87
2023-03-30T15:36:10.395Z,99711.84
2023-03-30T15:38:45.710Z,99711.27
2023-03-30T15:41:15.636Z,99713.30
2023-03-30T15:44:16.676Z,99713.38
2023-03-30T15:46:46.509Z,99716.47
2023-03-30T15:49:18.616Z,99713.54
2023-03-30T15:51:56.142Z,99714.08
2023-03-30T15:54:30.530Z,99709.93
2023-03-30T15:57:13.401Z,99715.52
2023-03-30T15:59:45.442Z,99716.72
2023-03-30T16:02:21.699Z,99715.71
2023-03-30T16:04:49.980Z,99716.59
2023-03-30T16:07:19.965Z,99715.98
2023-03-30T16:09:48.095Z,99720.67
2023-03-30T16:12:22.341Z,99722.40
2023-03-30T16:14:50.513Z,99723.48
2023-03-30T16:17:23.414Z,99724.69
2023-03-30T16:19:51.684Z,99726.61
2023-03-30T16:22:19.603Z,99726.35
2023-03-30T16:24:50.379Z,99722.58
2023-03-30T16:27:18.600Z,99720.80
2023-03-30T16:29:46.497Z,99726.03
2023-03-30T16:32:14.285Z,99726.86
2023-03-30T16:38:04.818Z,99725.69
2023-03-30T16:40:43.246Z,99724.77
2023-03-30T16:43:11.706Z,99729.45
2023-03-30T16:45:39.645Z,99731.71
2023-03-30T16:48:08.254Z,99730.13
2023-03-30T16:50:37.669Z,99730.59
2023-03-30T16:53:06.093Z,99735.33
2023-03-30T16:55:34.250Z,99732.36
2023-03-30T16:58:07.817Z,99734.34
2023-03-30T17:01:03.177Z,99735.80
2023-03-30T17:03:32.222Z,99734.17
2023-03-30T17:06:00.431Z,99732.61
2023-03-30T17:08:29.737Z,99735.95
2023-03-30T17:11:01.021Z,99736.90
2023-03-30T17:13:37.003Z,99738.05
2023-03-30T17:16:27.373Z,99741.98
2023-03-30T17:19:01.048Z,99739.09
2023-03-30T17:21:29.598Z,99738.59
2023-03-30T17:23:57.985Z,99740.52
2023-03-30T17:26:28.639Z,99739.30
2023-03-30T17:28:57.369Z,99739.02
2023-03-30T17:31:26.223Z,99738.70
2023-03-30T17:33:55.077Z,99734.13
2023-03-30T17:36:23.846Z,99733.30
2023-03-30T17:38:59.968Z,99734.52
2023-03-30T17:41:27.909Z,99732.83
2023-03-30T17:43:55.834Z,99729.73
2023-03-30T17:46:23.821Z,99729.95
2023-03-30T17:48:52.142Z,99730.48
2023-03-30T17:51:20.673Z,99733.29
2023-03-30T17:53:48.636Z,99734.45
2023-03-30T17:56:19.557Z,99736.53
2023-03-30T17:58:49.162Z,99734.49
2023-03-30T18:01:17.147Z,99735.60
2023-03-30T18:03:45.658Z,99732.66
2023-03-30T18:06:13.890Z,99731.64
2023-03-30T18:08:43.213Z,99727.45
2023-03-30T18:11:11.776Z,99725.02
2023-03-30T18:13:40.023Z,99722.60
2023-03-30T18:16:10.570Z,99721.31
2023-03-30T18:18:40.863Z,99726.19
2023-03-30T18:21:09.785Z,99727.21
2023-03-30T18:23:41.523Z,99720.44
2023-03-30T18:26:12.724Z,99721.14
2023-03-30T18:28:43.752Z,99714.27
2023-03-30T18:31:12.768Z,99716.80
2023-03-30T18:33:40.862Z,99711.67
2023-03-30T18:36:12.553Z,99715.74
2023-03-30T18:38:41.737Z,99712.34
2023-03-30T18:41:12.960Z,99711.64
2023-03-30T18:43:40.959Z,99712.39
2023-03-30T18:46:10.836Z,99705.65
2023-03-30T18:48:38.980Z,99702.16
2023-03-30T18:51:08.977Z,99698.81
2023-03-30T18:53:42.609Z,99694.98
2023-03-30T18:56:11.617Z,99694.67
2023-03-30T18:58:42.164Z,99689.61
2023-03-30T19:01:15.808Z,99688.02
2023-03-30T19:03:45.324Z,99690.04
2023-03-30T19:06:16.530Z,99677.94
2023-03-30T19:08:44.545Z,99676.73
2023-03-30T19:11:14.411Z,99672.36
2023-03-30T19:13:42.426Z,99674.08
2023-03-30T19:16:11.255Z,99675.11
2023-03-30T19:18:40.132Z,99673.80
2023-03-30T19:21:14.007Z,99671.00
2023-03-30T19:23:41.966Z,99666.77
2023-03-30T19:26:09.890Z,99671.61
2023-03-30T19:28:40.152Z,99664.86
2023-03-30T19:31:13.474Z,99664.15
2023-03-30T19:33:41.605Z,99665.20
2023-03-30T19:36:09.821Z,99664.14
2023-03-30T19:38:38.449Z,99660.38
2023-03-30T19:41:10.957Z,99663.30
2023-03-30T19:43:39.459Z,99660.48
2023-03-30T19:46:08.710Z,99650.61
2023-03-30T19:48:38.345Z,99645.34
2023-03-30T19:51:06.783Z,99637.98
2023-03-30T19:53:37.933Z,99634.14
2023-03-30T19:56:11.165Z,99633.10
2023-03-30T19:58:39.262Z,99627.54
2023-03-30T20:01:08.268Z,99624.38
2023-03-30T20:03:37.141Z,99621.80
2023-03-30T20:06:08.876Z,99620.81
2023-03-30T20:08:36.903Z,99616.66
2023-03-30T20:11:08.707Z,99611.64
2023-03-30T20:13:36.529Z,99608.44
2023-03-30T20:16:05.968Z,99605.14
2023-03-30T20:18:35.734Z,99604.80
2023-03-30T20:21:04.546Z,99600.31
2023-03-30T20:23:33.195Z,99595.72
2023-03-30T20:26:04.374Z,99595.59
2023-03-30T20:28:33.992Z,99592.12
2023-03-30T20:31:02.051Z,99595.36
2023-03-30T20:33:32.937Z,99591.38
2023-03-30T20:36:01.318Z,99587.74
2023-03-30T20:38:29.349Z,99584.71
2023-03-30T20:40:58.575Z,99581.25
2023-03-30T20:43:26.467Z,99575.76
2023-03-30T20:46:03.884Z,99572.73
2023-03-30T20:48:42.002Z,99570.33
2023-03-30T20:51:11.071Z,99570.69
2023-03-30T20:53:39.203Z,99568.83
2023-03-30T20:56:09.322Z,99564.61
2023-03-30T20:58:37.797Z,99557.96
2023-03-30T21:01:34.214Z,99554.30
2023-03-30T21:04:03.241Z,99551.69
2023-03-30T21:06:31.463Z,99546.34
2023-03-30T21:09:01.806Z,99544.91
2023-03-30T21:11:30.013Z,99541.38
2023-03-30T21:14:01.570Z,99539.70
2023-03-30T21:16:29.733Z,99533.77
2023-03-30T21:18:57.608Z,99529.09
2023-03-30T21:21:31.457Z,99518.48
2023-03-30T21:24:00.585Z,99519.27
2023-03-30T21:26:31.801Z,99515.67
2023-03-30T21:29:02.357Z,99512.52
2023-03-30T21:31:30.931Z,99508.09
2023-03-30T21:33:59.781Z,99505.83
2023-03-30T21:36:27.977Z,99503.48
2023-03-30T21:38:57.628Z,99502.14
2023-03-30T21:41:26.318Z,99500.22
2023-03-30T21:43:54.583Z,99498.13
2023-03-30T21:46:22.979Z,99493.27
2023-03-30T21:48:53.683Z,99491.33
2023-03-30T21:51:27.206Z,99492.34
2023-03-30T21:53:55.687Z,99489.73
2023-03-30T21:56:24.311Z,99487.58
2023-03-30T21:58:52.390Z,99482.09
2023-03-30T22:01:20.777Z,99478.86
2023-03-30T22:03:53.159Z,99477.04
2023-03-30T22:06:21.409Z,99471.41
2023-03-30T22:08:49.259Z,99470.01
2023-03-30T22:11:18.710Z,99467.33
2023-03-30T22:13:48.948Z,99465.88
2023-03-30T22:16:22.527Z,99459.73
2023-03-30T22:18:55.958Z,99454.90
2023-03-30T22:21:24.489Z,99446.27
2023-03-30T22:23:52.514Z,99442.08
2023-03-30T22:26:20.868Z,99438.85
2023-03-30T22:28:48.954Z,99433.69
2023-03-30T22:31:17.673Z,99430.45
2023-03-30T22:33:46.569Z,99429.73
2023-03-30T22:36:16.773Z,99426.70
2023-03-30T22:38:45.861Z,99427.15
2023-03-30T22:41:13.794Z,99421.61
2023-03-30T22:43:41.720Z,99421.94
2023-03-30T22:46:10.189Z,99420.92
2023-03-30T22:48:41.653Z,99419.30
2023-03-30T22:51:14.230Z,99419.13
2023-03-30T22:53:42.555Z,99419.13
2023-03-30T22:56:11.898Z,99416.55
2023-03-30T22:58:40.389Z,99415.58
2023-03-30T23:01:10.654Z,99411.64
2023-03-30T23:03:39.995Z,99407.30
2023-03-30T23:06:09.393Z,99404.21
2023-03-30T23:08:37.433Z,99399.13
2023-03-30T23:11:06.450Z,99401.30
2023-03-30T23:13:37.601Z,99401.33
2023-03-30T23:16:06.753Z,99398.00
2023-03-30T23:18:37.204Z,99393.50
2023-03-30T23:21:10.894Z,99389.30
2023-03-30T23:23:38.804Z,99387.39
2023-03-30T23:26:10.593Z,99390.12
2023-03-30T23:28:39.341Z,99387.55
2023-03-30T23:31:10.774Z,99383.32
2023-03-30T23:33:39.130Z,99380.94
2023-03-30T23:36:07.872Z,99376.30
2023-03-30T23:38:36.512Z,99373.31
2023-03-30T23:41:04.504Z,99372.75
2023-03-30T23:43:32.316Z,99370.50
2023-03-30T23:46:00.615Z,99365.20
2023-03-30T23:48:28.617Z,99367.27
2023-03-30T23:50:57.648Z,99366.59
2023-03-30T23:53:26.664Z,99360.02
2023-03-30T23:55:54.730Z,99364.15
2023-03-30T23:58:22.845Z,99362.20
